Time;durP1;ratioP1;P1;durP2;ratioP2;P2;SDS_P1;SDS_P2;PMS_P1;PMS_P2;Temp;Humidity;BMP_temperature;BMP_pressure;BME280_temperature;BME280_humidity;BME280_pressure;Samples;Min_cycle;Max_cycle;Signal;HPM_P1;HPM_P2
2022/12/21 00:01:56;;;;;;;51.27;38.13;;;;;;;8.31;100.00;100918.38;4864780;29;20173;-91
2022/12/21 00:04:27;;;;;;;49.80;38.70;;;;;;;8.27;100.00;100904.41;4862203;29;20065;-91
2022/12/21 00:07:04;;;;;;;55.03;40.70;;;;;;;8.26;100.00;100902.75;4864553;29;20136;-91
2022/12/21 00:09:48;;;;;;;53.53;40.20;;;;;;;8.28;100.00;100898.00;4861970;29;20068;-91
2022/12/21 00:12:25;;;;;;;54.22;41.00;;;;;;;8.25;100.00;100884.91;4864104;29;20074;-91
2022/12/21 00:15:08;;;;;;;55.57;41.53;;;;;;;8.22;100.00;100887.97;4863700;29;20112;-92
2022/12/21 00:17:41;;;;;;;59.73;41.87;;;;;;;8.23;100.00;100889.63;4864624;29;20033;-91
2022/12/21 00:20:18;;;;;;;56.80;41.90;;;;;;;8.27;100.00;100888.22;4877405;29;20033;-91
2022/12/21 00:22:58;;;;;;;59.07;41.83;;;;;;;8.31;100.00;100887.81;4847447;29;20044;-92
2022/12/21 00:25:27;;;;;;;57.83;40.90;;;;;;;8.25;100.00;100894.84;4863984;29;20116;-91
2022/12/21 00:27:52;;;;;;;55.63;41.47;;;;;;;8.22;100.00;100884.44;4862417;29;20040;-92
2022/12/21 00:30:27;;;;;;;54.10;39.57;;;;;;;8.25;100.00;100893.00;4862564;29;20029;-91
2022/12/21 00:33:06;;;;;;;57.60;42.38;;;;;;;8.24;100.00;100898.56;4862893;29;20041;-90
2022/12/21 00:35:31;;;;;;;58.23;40.43;;;;;;;8.19;100.00;100893.75;4863498;29;20816;-91
2022/12/21 00:38:28;;;;;;;59.77;41.80;;;;;;;8.17;100.00;100906.59;4861972;29;20175;-91
2022/12/21 00:41:02;;;;;;;60.60;42.53;;;;;;;8.17;100.00;100901.19;4850460;29;20072;-91
2022/12/21 00:43:29;;;;;;;58.70;40.55;;;;;;;8.19;100.00;100907.25;4861722;29;20029;-90
2022/12/21 00:45:59;;;;;;;60.10;41.97;;;;;;;8.14;100.00;100896.19;4853949;29;20044;-90
2022/12/21 00:48:26;;;;;;;57.97;40.93;;;;;;;8.15;100.00;100908.66;4861949;29;20033;-91
2022/12/21 00:51:06;;;;;;;61.60;41.90;;;;;;;8.16;100.00;100904.94;4858254;29;20029;-90
2022/12/21 00:53:36;;;;;;;58.40;41.73;;;;;;;8.14;100.00;100901.59;4863396;29;20037;-90
2022/12/21 00:56:06;;;;;;;62.80;42.17;;;;;;;8.13;100.00;100896.41;4863875;29;20044;-91
2022/12/21 00:58:33;;;;;;;61.90;42.93;;;;;;;8.15;100.00;100892.47;4862188;29;20033;-90
2022/12/21 01:01:18;;;;;;;64.90;43.60;;;;;;;8.15;100.00;100905.97;4862127;29;20455;-90
2022/12/21 01:03:46;;;;;;;59.17;41.40;;;;;;;8.15;100.00;100916.78;4861079;29;20462;-91
2022/12/21 01:06:36;;;;;;;61.93;42.13;;;;;;;8.12;100.00;100917.16;4871048;29;20040;-90
2022/12/21 01:09:15;;;;;;;;;;;;;;;;;;;;;
2022/12/21 01:11:41;;;;;;;67.67;44.77;;;;;;;8.10;100.00;100916.50;4866239;29;20067;-91
2022/12/21 01:14:10;;;;;;;65.37;44.20;;;;;;;8.10;100.00;100919.22;4864352;29;20623;-90
2022/12/21 01:16:43;;;;;;;62.77;43.37;;;;;;;8.09;100.00;100922.94;4866599;29;21636;-91
2022/12/21 01:19:11;;;;;;;63.47;44.43;;;;;;;8.10;100.00;100916.50;4864760;29;20025;-91
2022/12/21 01:21:37;;;;;;;64.70;45.17;;;;;;;8.13;100.00;100937.69;4865658;29;20474;-90
2022/12/21 01:24:05;;;;;;;72.50;47.00;;;;;;;8.08;100.00;100918.59;4879056;29;20080;-91
2022/12/21 01:26:31;;;;;;;70.30;45.97;;;;;;;8.08;100.00;100926.69;4866711;29;20076;-90
2022/12/21 01:29:04;;;;;;;68.37;45.80;;;;;;;8.08;100.00;100913.19;4864521;29;20112;-91
2022/12/21 01:31:32;;;;;;;69.80;46.83;;;;;;;8.10;100.00;100916.50;4864994;29;20147;-90
2022/12/21 01:33:58;;;;;;;74.83;47.20;;;;;;;8.04;100.00;100922.69;4864005;29;20045;-90
2022/12/21 01:36:28;;;;;;;76.40;49.00;;;;;;;8.07;100.00;100922.31;4863824;29;20533;-90
2022/12/21 01:38:56;;;;;;;74.17;47.33;;;;;;;8.07;100.00;100930.41;4871543;29;20120;-90
2022/12/21 01:41:29;;;;;;;69.27;45.77;;;;;;;8.06;100.00;100931.41;4865154;29;20037;-90
2022/12/21 01:44:21;;;;;;;68.70;45.63;;;;;;;8.06;100.00;100934.94;4847660;29;20565;-90
2022/12/21 01:46:50;;;;;;;72.70;47.33;;;;;;;8.08;100.00;100937.47;4865183;29;20371;-90
2022/12/21 01:49:30;;;;;;;70.83;47.03;;;;;;;8.09;100.00;100941.81;4879841;29;20040;-90
2022/12/21 01:52:01;;;;;;;69.80;46.90;;;;;;;8.04;100.00;100933.50;4863691;29;20048;-90
2022/12/21 01:54:40;;;;;;;75.60;49.63;;;;;;;8.06;100.00;100942.22;4864268;29;20107;-90
2022/12/21 01:57:09;;;;;;;73.40;47.53;;;;;;;8.07;100.00;100942.00;4864590;29;20041;-90
2022/12/21 01:59:41;;;;;;;72.97;49.50;;;;;;;8.05;100.00;100940.53;4864380;29;20032;-90
2022/12/21 02:02:17;;;;;;;75.10;49.80;;;;;;;8.05;100.00;100936.00;4865099;29;20528;-90
2022/12/21 02:04:43;;;;;;;78.00;49.73;;;;;;;8.08;100.00;100940.16;4865180;29;20123;-89
2022/12/21 02:07:08;;;;;;;76.13;48.37;;;;;;;8.06;100.00;100926.03;4863998;29;20075;-90
2022/12/21 02:09:40;;;;;;;74.37;49.17;;;;;;;8.07;100.00;100927.69;4865256;29;20738;-90
2022/12/21 02:12:15;;;;;;;74.47;48.10;;;;;;;8.09;100.00;100934.56;4864183;29;20045;-90
2022/12/21 02:14:43;;;;;;;74.88;48.47;;;;;;;8.07;100.00;100923.13;4864884;29;20092;-90
2022/12/21 02:17:45;;;;;;;76.27;48.13;;;;;;;8.08;100.00;100927.50;4854970;29;20059;-90
2022/12/21 02:20:40;;;;;;;77.40;49.13;;;;;;;8.06;100.00;100926.03;4862817;29;20503;-90
2022/12/21 02:23:27;;;;;;;76.88;50.60;;;;;;;8.06;100.00;100920.63;4861046;29;20033;-89
2022/12/21 02:26:14;;;;;;;77.07;49.80;;;;;;;8.09;100.00;100928.31;4854281;29;20049;-90
2022/12/21 02:29:10;;;;;;;78.97;50.83;;;;;;;8.05;100.00;100927.91;4865275;29;20037;-90
2022/12/21 02:31:56;;;;;;;78.60;50.03;;;;;;;8.05;100.00;100921.66;4855070;29;20051;-90
2022/12/21 02:34:41;;;;;;;75.70;48.07;;;;;;;8.07;100.00;100914.22;4864541;29;21479;-90
2022/12/21 02:37:22;;;;;;;76.53;49.07;;;;;;;8.01;100.00;100906.88;4863621;29;20033;-90
2022/12/21 02:40:29;;;;;;;78.43;50.53;;;;;;;8.07;100.00;100919.59;4862728;29;20033;-90
2022/12/21 02:45:59;;;;;;;78.73;49.87;;;;;;;8.04;100.00;100917.31;4864683;29;20105;-89
2022/12/21 02:48:52;;;;;;;76.60;50.60;;;;;;;8.04;100.00;100911.91;4863627;29;20088;-90
2022/12/21 02:51:25;;;;;;;76.37;49.13;;;;;;;8.01;100.00;100904.16;4863282;29;20048;-89
2022/12/21 02:53:55;;;;;;;81.60;52.73;;;;;;;7.98;100.00;100907.25;4878173;29;20479;-90
2022/12/21 02:56:23;;;;;;;84.70;52.30;;;;;;;8.00;100.00;100913.31;4863333;29;20482;-90
2022/12/21 02:58:49;;;;;;;80.77;51.57;;;;;;;8.02;100.00;100919.34;4863201;29;20037;-89
2022/12/21 03:01:37;;;;;;;82.53;51.73;;;;;;;7.99;100.00;100914.34;4864684;29;20429;-89
2022/12/21 03:04:35;;;;;;;80.77;51.73;;;;;;;7.97;100.00;100917.22;4860688;29;20143;-89
2022/12/21 03:07:31;;;;;;;86.00;51.63;;;;;;;8.00;100.00;100913.31;4862938;29;20033;-89
2022/12/21 03:10:10;;;;;;;84.90;51.97;;;;;;;7.99;100.00;100912.47;4862223;29;20047;-89
2022/12/21 03:12:49;;;;;;;86.00;52.50;;;;;;;7.97;100.00;100898.34;4864441;29;20558;-90
2022/12/21 03:15:36;;;;;;;88.47;54.20;;;;;;;7.99;100.00;100900.84;4861761;29;20069;-89
2022/12/21 03:18:31;;;;;;;89.53;54.10;;;;;;;7.90;100.00;100890.19;4864298;29;20028;-89
2022/12/21 03:21:13;;;;;;;89.33;55.20;;;;;;;7.92;100.00;100898.91;4853688;29;20482;-89
2022/12/21 03:23:46;;;;;;;87.37;52.40;;;;;;;7.94;100.00;100896.88;4861501;29;20104;-90
2022/12/21 03:26:22;;;;;;;89.50;54.50;;;;;;;7.92;100.00;100892.69;4863689;29;20106;-89
2022/12/21 03:28:50;;;;;;;89.33;53.57;;;;;;;7.92;100.00;100904.31;4862267;29;20033;-90
2022/12/21 03:31:20;;;;;;;84.53;52.10;;;;;;;7.88;100.00;100900.31;4877974;29;20489;-89
2022/12/21 03:34:12;;;;;;;87.60;54.30;;;;;;;7.91;100.00;100901.81;4862104;29;20036;-89
2022/12/21 03:36:46;;;;;;;95.17;57.20;;;;;;;7.87;100.00;100885.16;4863904;29;20041;-88
2022/12/21 03:39:16;;;;;;;95.35;57.50;;;;;;;7.87;100.00;100887.03;4862347;29;20040;-89
2022/12/21 03:41:48;;;;;;;93.10;56.23;;;;;;;7.89;100.00;100882.28;4862730;29;20085;-89
2022/12/21 03:44:17;;;;;;;95.03;54.20;;;;;;;7.84;100.00;100884.72;4854787;29;20080;-89
2022/12/21 03:47:11;;;;;;;96.60;57.83;;;;;;;7.88;100.00;100888.72;4863924;29;20068;-88
2022/12/21 03:49:39;;;;;;;95.67;56.60;;;;;;;7.87;100.00;100895.13;4861114;29;20490;-89
2022/12/21 03:52:10;;;;;;;97.23;56.50;;;;;;;7.84;100.00;100888.25;4862818;29;20603;-89
2022/12/21 03:54:47;;;;;;;96.00;54.93;;;;;;;7.86;100.00;100906.94;4853082;29;20092;-89
2022/12/21 03:57:14;;;;;;;94.13;55.87;;;;;;;7.85;100.00;100905.28;4861393;29;20024;-88
2022/12/21 03:59:44;;;;;;;91.47;55.90;;;;;;;7.86;100.00;100891.59;4861517;29;20033;-89
2022/12/21 04:02:41;;;;;;;95.83;57.93;;;;;;;7.87;100.00;100895.13;4862178;29;20119;-89
2022/12/21 04:05:18;;;;;;;99.87;59.17;;;;;;;7.84;100.00;100873.94;4861806;29;21350;-89
2022/12/21 04:07:48;;;;;;;98.97;58.03;;;;;;;7.85;100.00;100875.63;4862285;29;20152;-89
2022/12/21 04:10:16;;;;;;;93.87;57.67;;;;;;;7.85;100.00;100887.22;4862066;29;20028;-89
2022/12/21 04:12:42;;;;;;;88.33;55.27;;;;;;;7.88;100.00;100894.09;4862316;29;20101;-89
2022/12/21 04:16:09;;;;;;;90.50;57.33;;;;;;;7.81;100.00;100891.34;4863333;29;20037;-90
2022/12/21 04:18:08;;;;;;;89.93;56.60;;;;;;;7.81;100.00;100885.94;4856895;29;20330;-89
2022/12/21 04:20:33;;;;;;;95.23;57.03;;;;;;;7.82;100.00;100889.47;4862218;29;20044;-89
2022/12/21 04:28:32;;;;;;;92.72;57.78;;;;;;;7.80;100.00;100888.84;4863680;29;20047;-89
2022/12/21 04:31:00;;;;;;;86.23;55.17;;;;;;;7.81;100.00;100899.44;4869154;29;20048;-89
2022/12/21 04:33:29;;;;;;;89.50;56.90;;;;;;;7.75;100.00;100890.25;4853157;29;20048;-89
2022/12/21 04:38:44;;;;;;;81.43;53.23;;;;;;;7.70;100.00;100881.06;4863675;29;20101;-90
2022/12/21 04:41:10;;;;;;;69.07;47.77;;;;;;;7.69;100.00;100876.69;4863307;29;20028;-89
2022/12/21 04:43:37;;;;;;;67.30;46.20;;;;;;;7.70;100.00;100891.84;4865512;29;20470;-88
2022/12/21 04:46:05;;;;;;;58.47;41.63;;;;;;;7.67;100.00;100884.13;4856918;29;20127;-89
2022/12/21 04:48:34;;;;;;;58.47;43.47;;;;;;;7.65;100.00;100886.19;4865918;29;20037;-89
2022/12/21 04:51:10;;;;;;;60.30;41.03;;;;;;;7.65;100.00;100886.19;4864668;29;20032;-89
2022/12/21 04:53:38;;;;;;;52.67;39.37;;;;;;;7.63;100.00;100882.84;4871960;29;20040;-89
2022/12/21 04:56:04;;;;;;;50.90;36.57;;;;;;;7.63;100.00;100880.16;4865873;29;20048;-89
2022/12/21 04:58:31;;;;;;;45.57;35.37;;;;;;;7.60;100.00;100874.13;4865454;29;20045;-88
2022/12/21 05:00:57;;;;;;;43.03;33.27;;;;;;;7.62;100.00;100873.94;4862924;29;20168;-89
2022/12/21 05:03:22;;;;;;;44.43;33.17;;;;;;;7.58;100.00;100865.38;4866834;29;20043;-89
2022/12/21 05:05:47;;;;;;;44.90;33.67;;;;;;;7.60;100.00;100868.72;4863437;29;20036;-89
2022/12/21 05:08:13;;;;;;;45.33;33.77;;;;;;;7.62;100.00;100884.72;4865112;29;20039;-89
2022/12/21 05:10:39;;;;;;;47.17;34.87;;;;;;;7.59;100.00;100874.31;4863492;29;20037;-89
2022/12/21 05:13:05;;;;;;;46.00;34.03;;;;;;;7.60;100.00;100879.53;4866381;29;20594;-89
2022/12/21 05:15:34;;;;;;;44.40;32.17;;;;;;;7.57;100.00;100871.78;4868023;29;20061;-89
2022/12/21 05:17:59;;;;;;;39.67;29.73;;;;;;;7.57;100.00;100865.56;4865324;29;20041;-89
2022/12/21 05:20:29;;;;;;;41.10;30.53;;;;;;;7.55;100.00;100871.16;4864601;29;20041;-89
2022/12/21 05:22:57;;;;;;;38.60;28.47;;;;;;;7.54;100.00;100869.47;4864907;29;20083;-89
2022/12/21 05:25:23;;;;;;;43.13;30.40;;;;;;;7.52;100.00;100889.56;4849106;29;20044;-88
2022/12/21 05:27:50;;;;;;;41.30;29.90;;;;;;;7.52;100.00;100887.72;4864586;29;20502;-89
2022/12/21 05:30:18;;;;;;;39.00;28.37;;;;;;;7.50;100.00;100889.75;4864572;29;20061;-89
2022/12/21 05:32:44;;;;;;;37.47;27.73;;;;;;;7.43;100.00;100878.91;4864521;29;20047;-89
2022/12/21 05:35:12;;;;;;;37.97;27.90;;;;;;;7.42;100.00;100871.00;4863232;29;20052;-89
2022/12/21 05:37:38;;;;;;;41.93;29.67;;;;;;;7.43;100.00;100878.09;4863848;29;20045;-89
2022/12/21 05:40:04;;;;;;;37.30;28.63;;;;;;;7.42;100.00;100877.25;4864409;29;20053;-89
2022/12/21 05:42:32;;;;;;;37.43;28.73;;;;;;;7.37;100.00;100863.50;4865599;29;20566;-88
2022/12/21 05:44:59;;;;;;;37.73;28.50;;;;;;;7.40;100.00;100871.22;4848055;29;20144;-89
2022/12/21 05:47:25;;;;;;;35.23;26.70;;;;;;;7.41;100.00;100872.03;4865527;29;20516;-89
2022/12/21 05:49:50;;;;;;;36.83;27.90;;;;;;;7.34;100.00;100866.56;4868948;29;20036;-89
2022/12/21 05:52:16;;;;;;;36.43;28.13;;;;;;;7.34;100.00;100877.34;4867892;29;20037;-88
2022/12/21 05:54:41;;;;;;;38.77;29.40;;;;;;;7.37;100.00;100878.81;4864194;29;20047;-89
2022/12/21 05:57:06;;;;;;;38.90;27.83;;;;;;;7.34;100.00;100858.47;4864342;29;20040;-89
2022/12/21 05:59:34;;;;;;;38.13;27.33;;;;;;;7.30;100.00;100851.78;4867792;29;20068;-89
2022/12/21 06:02:00;;;;;;;39.43;28.17;;;;;;;7.31;100.00;100858.03;4865771;29;20036;-89
2022/12/21 06:04:25;;;;;;;39.50;27.17;;;;;;;7.30;100.00;100869.84;4866170;29;20105;-88
2022/12/21 06:06:51;;;;;;;35.97;27.17;;;;;;;7.23;100.00;100859.81;4864867;29;20041;-89
2022/12/21 06:09:16;;;;;;;38.00;27.37;;;;;;;7.26;100.00;100851.34;4865685;29;20065;-89
2022/12/21 06:11:44;;;;;;;38.17;27.63;;;;;;;7.20;100.00;100840.50;4865164;29;20402;-89
2022/12/21 06:14:09;;;;;;;35.93;27.00;;;;;;;7.16;100.00;100850.81;4864789;29;20052;-89
2022/12/21 06:16:35;;;;;;;37.13;26.43;;;;;;;7.19;100.00;100853.13;4863139;29;20100;-89
2022/12/21 06:19:05;;;;;;;36.43;26.07;;;;;;;7.17;100.00;100854.38;4863870;29;20040;-88
2022/12/21 06:21:33;;;;;;;35.93;27.33;;;;;;;7.13;100.00;100856.59;4864344;29;20089;-89
2022/12/21 06:23:59;;;;;;;34.93;26.93;;;;;;;7.10;100.00;100851.59;4863659;29;20037;-89
2022/12/21 06:26:29;;;;;;;36.93;25.07;;;;;;;7.14;100.00;100862.81;4843262;29;20099;-89
2022/12/21 06:28:55;;;;;;;35.23;25.50;;;;;;;7.15;100.00;100864.47;4865229;29;20041;-89
2022/12/21 06:31:22;;;;;;;33.00;25.03;;;;;;;7.17;100.00;100863.28;4863038;29;20554;-89
2022/12/21 06:33:50;;;;;;;35.33;25.60;;;;;;;7.14;100.00;100858.28;4864669;29;20044;-89
2022/12/21 06:36:18;;;;;;;33.57;24.20;;;;;;;7.10;100.00;100854.28;4862006;29;20047;-88
2022/12/21 06:38:44;;;;;;;32.87;24.07;;;;;;;7.12;100.00;100859.47;4865029;29;20044;-89
2022/12/21 06:41:14;;;;;;;32.73;22.03;;;;;;;7.05;100.00;100865.59;4863101;29;20047;-89
2022/12/21 06:43:41;;;;;;;30.33;22.77;;;;;;;7.06;100.00;100866.47;4863648;29;20481;-89
2022/12/21 06:46:09;;;;;;;30.47;21.83;;;;;;;7.05;100.00;100873.69;4864652;29;20033;-89
2022/12/21 06:48:36;;;;;;;34.70;22.37;;;;;;;7.04;100.00;100868.50;4863653;29;20165;-89
2022/12/21 06:51:09;;;;;;;29.50;21.87;;;;;;;6.99;100.00;100861.00;4855027;29;20068;-89
2022/12/21 06:53:40;;;;;;;31.10;22.03;;;;;;;6.97;100.00;100867.59;4863923;29;20142;-89
2022/12/21 06:56:11;;;;;;;29.53;20.87;;;;;;;6.91;100.00;100861.91;4864163;29;20044;-89
2022/12/21 06:58:38;;;;;;;30.27;21.43;;;;;;;6.93;100.00;100865.28;4854712;29;20120;-89
2022/12/21 07:01:14;;;;;;;28.60;19.67;;;;;;;6.91;100.00;100870.00;4858961;29;20462;-89
2022/12/21 07:03:41;;;;;;;26.30;19.00;;;;;;;6.91;100.00;100870.00;4858201;29;20056;-88
2022/12/21 07:06:07;;;;;;;28.37;18.97;;;;;;;6.91;100.00;100878.06;4869350;29;20032;-95
2022/12/21 07:08:34;;;;;;;27.57;18.53;;;;;;;6.91;100.00;100891.53;4880229;29;20077;-93
2022/12/21 07:11:08;;;;;;;27.37;17.87;;;;;;;6.88;100.00;100881.16;4895723;29;20040;-95
2022/12/21 07:13:35;;;;;;;28.25;17.90;;;;;;;6.89;100.00;100887.34;4879470;29;20120;-94
2022/12/21 07:16:01;;;;;;;26.77;17.27;;;;;;;6.83;100.00;100870.09;4879738;29;20389;-93
2022/12/21 07:18:26;;;;;;;25.33;17.10;;;;;;;6.84;100.00;100873.59;4895127;29;20154;-93
2022/12/21 07:21:02;;;;;;;25.80;15.70;;;;;;;6.85;100.00;100875.28;4895536;29;20381;-94
2022/12/21 07:23:28;;;;;;;23.90;15.03;;;;;;;6.85;100.00;100870.72;4895652;29;20066;-95
2022/12/21 07:25:56;;;;;;;23.30;14.70;;;;;;;6.80;100.00;100867.78;4895344;29;20053;-95
2022/12/21 07:28:23;;;;;;;24.23;16.10;;;;;;;6.76;100.00;100874.56;4895255;29;20025;-94
2022/12/21 07:30:49;;;;;;;23.97;14.77;;;;;;;6.75;100.00;100883.66;4895577;29;20081;-95
2022/12/21 07:33:19;;;;;;;24.73;14.10;;;;;;;6.74;100.00;100895.44;4894857;29;20032;-94
2022/12/21 07:35:49;;;;;;;20.73;12.17;;;;;;;6.73;100.00;100899.16;4879440;29;20025;-94
2022/12/21 07:38:15;;;;;;;19.63;10.10;;;;;;;6.76;100.00;100904.19;4895203;29;20446;-94
2022/12/21 07:40:48;;;;;;;18.20;10.23;;;;;;;6.71;100.00;100896.63;4894955;29;20028;-94
2022/12/21 07:43:14;;;;;;;19.53;10.30;;;;;;;6.67;100.00;100902.59;4895630;29;20033;-95
2022/12/21 07:45:39;;;;;;;21.63;10.23;;;;;;;6.69;100.00;100905.91;4879530;29;20025;-95
2022/12/21 07:48:07;;;;;;;18.20;10.20;;;;;;;6.68;100.00;100907.78;4895159;29;20029;-95
2022/12/21 07:50:33;;;;;;;21.40;10.57;;;;;;;6.70;100.00;100907.59;4879336;29;20029;-95
2022/12/21 07:53:01;;;;;;;20.63;11.23;;;;;;;6.70;100.00;100918.38;4895012;29;20466;-96
2022/12/21 07:55:29;;;;;;;18.97;10.20;;;;;;;6.67;100.00;100932.22;4895415;29;20021;-95
2022/12/21 07:57:54;;;;;;;19.20;10.23;;;;;;;6.64;100.00;100948.75;4895385;29;20021;-95
2022/12/21 08:00:23;;;;;;;21.53;10.13;;;;;;;6.64;100.00;100957.66;4879473;29;20032;-94
2022/12/21 08:02:50;;;;;;;21.23;10.40;;;;;;;6.66;100.00;100949.38;4895330;29;20111;-95
2022/12/21 08:05:24;;;;;;;22.10;10.47;;;;;;;6.65;100.00;100945.00;4879386;29;20066;-95
2022/12/21 08:07:50;;;;;;;18.05;9.55;;;;;;;6.61;100.00;100932.94;4879551;29;20485;-95
2022/12/21 08:10:16;;;;;;;18.07;10.30;;;;;;;6.63;100.00;100936.28;4879178;29;20029;-95
2022/12/21 08:12:43;;;;;;;20.83;10.43;;;;;;;6.61;100.00;100933.78;4879253;29;20040;-95
2022/12/21 08:15:12;;;;;;;19.30;10.20;;;;;;;6.61;100.00;100927.56;4880752;29;20056;-94
2022/12/21 08:17:38;;;;;;;18.90;9.37;;;;;;;6.59;100.00;100923.22;4882900;29;20128;-94
2022/12/21 08:20:04;;;;;;;21.50;10.20;;;;;;;6.56;100.00;100917.34;4882962;29;20497;-95
2022/12/21 08:22:29;;;;;;;23.60;10.83;;;;;;;6.56;100.00;100925.41;4883130;29;20048;-95
2022/12/21 08:24:58;;;;;;;24.33;10.73;;;;;;;6.57;100.00;100927.94;4882677;29;20029;-94
2022/12/21 08:27:26;;;;;;;21.40;10.40;;;;;;;6.59;100.00;100931.28;4882733;29;20071;-95
2022/12/21 08:29:54;;;;;;;21.87;10.47;;;;;;;6.63;100.00;100934.44;4883046;29;20053;-95
2022/12/21 08:32:24;;;;;;;23.90;11.33;;;;;;;6.63;100.00;100947.06;4868084;29;20534;-94
2022/12/21 08:34:50;;;;;;;23.33;11.60;;;;;;;6.60;100.00;100932.09;4882424;29;20195;-95
2022/12/21 08:37:15;;;;;;;27.67;11.97;;;;;;;6.62;100.00;100934.63;4882498;29;20043;-96
2022/12/21 08:39:43;;;;;;;20.70;12.00;;;;;;;6.63;100.00;100926.34;4882819;29;20450;-95
2022/12/21 08:42:16;;;;;;;23.43;12.83;;;;;;;6.68;100.00;100931.19;4882699;29;20029;-95
2022/12/21 08:44:44;;;;;;;23.93;13.53;;;;;;;6.71;100.00;100926.25;4882413;29;20123;-96
2022/12/21 08:47:09;;;;;;;26.40;14.10;;;;;;;6.73;100.00;100934.16;4882951;29;20039;-95
2022/12/21 08:49:37;;;;;;;25.87;13.10;;;;;;;6.78;100.00;100937.13;4882827;29;20033;-94
2022/12/21 08:52:02;;;;;;;23.53;13.57;;;;;;;6.82;100.00;100935.75;4883559;29;20040;-95
2022/12/21 08:54:34;;;;;;;24.20;13.23;;;;;;;6.81;100.00;100934.06;4883012;29;20036;-95
2022/12/21 08:57:00;;;;;;;24.93;14.10;;;;;;;6.83;100.00;100937.44;4882532;29;20192;-95
2022/12/21 08:59:35;;;;;;;;;;;;;;;;;;;;;
2022/12/21 09:02:01;;;;;;;25.17;14.37;;;;;;;6.88;100.00;100942.25;4884074;29;20483;-96
2022/12/21 09:04:29;;;;;;;27.60;15.07;;;;;;;6.93;100.00;100948.78;4883101;29;20119;-96
2022/12/21 09:06:55;;;;;;;23.87;14.30;;;;;;;6.91;100.00;100945.41;4867196;29;20028;-96
2022/12/21 09:09:27;;;;;;;25.67;15.07;;;;;;;6.98;100.00;100942.00;4882316;29;20045;-95
2022/12/21 09:11:53;;;;;;;24.83;15.13;;;;;;;6.92;100.00;100952.47;4882304;29;20032;-95
2022/12/21 09:14:22;;;;;;;23.37;14.83;;;;;;;6.98;100.00;100947.38;4882203;29;20040;-94
2022/12/21 09:16:50;;;;;;;28.33;16.57;;;;;;;6.97;100.00;100937.63;4882082;29;20033;-95
2022/12/21 09:19:19;;;;;;;27.70;16.10;;;;;;;7.02;100.00;100936.03;4881959;29;20037;-94
2022/12/21 09:21:46;;;;;;;30.33;17.00;;;;;;;7.01;100.00;100926.28;4882129;29;20036;-95
2022/12/21 09:24:18;;;;;;;24.47;15.73;;;;;;;7.03;100.00;100920.69;4882424;29;20033;-94
2022/12/21 09:26:44;;;;;;;30.97;17.87;;;;;;;7.05;100.00;100908.72;4865716;29;20502;-95
2022/12/21 09:29:10;;;;;;;31.43;19.20;;;;;;;7.09;100.00;100919.97;4882317;29;20040;-95
2022/12/21 09:31:36;;;;;;;32.00;19.67;;;;;;;7.12;100.00;100922.28;4881863;29;20033;-95
2022/12/21 09:34:01;;;;;;;35.97;20.90;;;;;;;7.16;100.00;100931.66;4882011;29;20028;-96
2022/12/21 09:36:35;;;;;;;33.70;21.60;;;;;;;7.24;100.00;100938.81;4881837;29;20056;-95
2022/12/21 09:39:09;;;;;;;32.03;21.37;;;;;;;7.26;100.00;100940.31;4881537;29;20056;-95
2022/12/21 09:41:43;;;;;;;32.47;21.83;;;;;;;7.30;100.00;100950.69;4881596;29;20092;-95
2022/12/21 09:44:37;;;;;;;32.00;23.67;;;;;;;7.38;100.00;100954.09;4881790;29;20463;-95
2022/12/21 09:47:10;;;;;;;34.13;24.03;;;;;;;7.36;100.00;100950.78;4881834;29;20289;-95
2022/12/21 09:49:47;;;;;;;34.03;22.70;;;;;;;7.40;100.00;100945.88;4881854;29;20039;-96
2022/12/21 09:52:23;;;;;;;34.97;22.87;;;;;;;7.41;100.00;100944.81;4881530;29;20037;-95
2022/12/21 09:54:56;;;;;;;35.10;24.73;;;;;;;7.44;100.00;100941.75;4882236;29;20028;-96
2022/12/21 09:57:36;;;;;;;36.25;24.05;;;;;;;7.52;100.00;100946.19;4881903;29;20021;-95
2022/12/21 10:00:16;;;;;;;33.73;23.67;;;;;;;7.57;100.00;100949.16;4878553;29;20033;-94
2022/12/21 10:02:59;;;;;;;34.00;24.43;;;;;;;7.65;100.00;100961.72;4897760;29;20119;-96
2022/12/21 10:06:01;;;;;;;33.13;21.60;;;;;;;7.73;100.00;100962.41;4881742;29;20434;-95
2022/12/21 10:08:51;;;;;;;31.03;22.43;;;;;;;7.77;100.00;100955.63;4883748;29;20132;-96
2022/12/21 10:11:28;;;;;;;32.40;22.63;;;;;;;7.94;100.00;100961.63;4882152;29;20048;-96
2022/12/21 10:14:19;;;;;;;30.40;21.43;;;;;;;7.94;100.00;100945.44;4883073;29;20097;-96
2022/12/21 10:17:04;;;;;;;;;;;;;;;;;;;;;
2022/12/21 10:20:02;;;;;;;28.20;19.20;;;;;;;7.94;100.00;100942.72;4887920;29;20115;-96
2022/12/21 10:22:41;;;;;;;29.80;19.13;;;;;;;7.94;100.00;100952.66;4870641;29;20128;-96
2022/12/21 10:25:21;;;;;;;28.63;18.27;;;;;;;7.94;100.00;100950.81;4886836;29;20116;-96
2022/12/21 10:28:08;;;;;;;26.07;17.90;;;;;;;7.85;100.00;100946.56;4903472;29;20090;-96
2022/12/21 10:30:38;;;;;;;29.17;17.97;;;;;;;7.86;100.00;100947.41;4905016;29;20044;-96
2022/12/21 10:33:14;;;;;;;27.67;17.57;;;;;;;7.83;100.00;100939.69;4941835;24;20064;-96
2022/12/21 10:39:26;;;;;;;27.20;15.90;;;;;;;7.81;100.00;100948.00;4894170;29;20044;-95
2022/12/21 10:42:19;;;;;;;27.57;15.60;;;;;;;7.88;100.00;100948.88;4887817;29;20051;-95
2022/12/21 10:45:34;;;;;;;25.60;15.10;;;;;;;7.83;100.00;100928.91;4861563;29;20061;-96
2022/12/21 10:51:35;;;;;;;27.87;15.57;;;;;;;7.88;100.00;100921.91;4751823;30;20059;-96
2022/12/21 10:54:46;;;;;;;;;;;;;;;;;;;;;
2022/12/21 10:58:13;;;;;;;26.50;15.90;;;;;;;7.94;100.00;100921.16;4883204;29;20124;-96
2022/12/21 11:13:57;;;;;;;28.43;15.27;;;;;;;8.00;100.00;100913.31;4810112;29;20049;-96
2022/12/21 11:20:27;;;;;;;25.20;15.33;;;;;;;8.11;100.00;100912.78;4885210;29;20104;-95
2022/12/21 11:23:42;;;;;;;26.27;15.30;;;;;;;7.97;100.00;100905.59;4873436;29;20036;-96
2022/12/21 11:30:58;;;;;;;;;;;;;;;;;;;;;
2022/12/21 11:34:07;;;;;;;23.20;15.20;;;;;;;7.99;100.00;100912.47;4820115;29;20050;-95
2022/12/21 11:37:02;;;;;;;26.63;16.33;;;;;;;7.94;100.00;100914.91;4800678;29;20473;-95
2022/12/21 11:39:30;;;;;;;26.17;16.23;;;;;;;7.86;100.00;100913.19;4859678;29;20037;-96
2022/12/21 11:41:56;;;;;;;24.93;15.97;;;;;;;7.90;100.00;100908.22;4831971;29;20038;-95
2022/12/21 11:44:42;;;;;;;;;;;;;;;;;;;;;
2022/12/21 11:47:19;;;;;;;24.30;16.20;;;;;;;7.94;100.00;100912.19;4863707;29;20021;-96
2022/12/21 11:50:07;;;;;;;26.23;16.43;;;;;;;7.92;100.00;100912.41;4846364;29;20032;-95
2022/12/21 11:53:01;;;;;;;25.90;17.07;;;;;;;7.93;100.00;100899.75;4847027;29;20042;-95
2022/12/21 11:55:58;;;;;;;26.50;17.00;;;;;;;7.95;100.00;100911.19;4851521;29;20030;-95
2022/12/21 11:58:51;;;;;;;27.57;16.93;;;;;;;7.93;100.00;100911.38;4848544;29;20045;-95
2022/12/21 12:01:35;;;;;;;25.20;16.60;;;;;;;7.92;100.00;100900.78;4848655;29;20034;-96
2022/12/21 12:04:35;;;;;;;;;;;;;;;;;;;;;
2022/12/21 12:07:30;;;;;;;29.07;18.83;;;;;;;7.92;100.00;100893.50;4867558;29;20093;-92
2022/12/21 12:14:27;;;;;;;;;;;;;;;;;;;;;
2022/12/21 12:16:54;;;;;;;25.63;16.97;;;;;;;7.94;100.00;100890.63;4786219;30;20043;-96
2022/12/21 12:20:03;;;;;;;28.10;17.17;;;;;;;8.03;100.00;100888.63;4797672;30;20035;-96
2022/12/21 12:22:58;;;;;;;27.80;17.53;;;;;;;7.92;100.00;100879.19;4798672;29;20531;-96
2022/12/21 12:25:48;;;;;;;26.90;17.55;;;;;;;8.00;100.00;100878.25;4794305;29;20035;-96
2022/12/21 12:28:19;;;;;;;23.77;17.60;;;;;;;7.98;100.00;100873.00;4811703;29;20039;-96
2022/12/21 12:30:57;;;;;;;28.77;18.30;;;;;;;7.96;100.00;100876.97;4808091;29;20043;-96
2022/12/21 12:33:30;;;;;;;29.77;18.87;;;;;;;8.00;100.00;100870.97;4808884;29;20130;-96
2022/12/21 12:40:04;;;;;;;27.07;17.17;;;;;;;8.11;100.00;100873.13;4812946;29;20111;-96